Date,TemperatureHighF,TemperatureAvgF,TemperatureLowF,DewpointHighF,DewpointAvgF,DewpointLowF,HumidityHigh,HumidityAvg,HumidityLow,PressureMaxIn,PressureMinIn,WindSpeedMaxMPH,WindSpeedAvgMPH,GustSpeedMaxMPH,PrecipitationSumIn
2013-5-1,57.7,52.3,48.9,53.1,49.2,45.0,98,90,66,30.43,30.30,17,4,17,0.00
2013-5-2,53.1,49.4,46.6,52.3,48.8,46.0,98,98,98,30.45,30.35,19,2,19,0.00
2013-5-3,55.4,49.1,45.0,50.7,44.7,39.9,98,86,61,30.40,30.23,19,7,19,0.00
2013-5-4,48.0,42.5,37.8,44.1,39.4,32.9,98,89,70,30.29,30.14,22,8,22,0.00
2013-5-5,47.8,43.2,39.2,47.3,42.6,38.7,98,98,98,30.21,29.98,23,-564,23,0.00
2013-5-6,57.6,49.1,43.0,56.7,46.1,36.0,98,91,49,30.08,29.89,24,-748,24,0.00
2013-5-7,57.2,47.6,42.8,49.3,43.4,39.0,98,86,53,30.09,29.95,6,-881,6,0.00
2013-5-8,62.4,52.1,45.7,48.9,45.9,41.2,98,81,49,30.17,29.99,10,-988,10,0.00
2013-5-9,77.7,59.0,46.9,49.8,43.1,32.4,98,61,22,30.27,30.03,9,-661,9,0.13
2013-5-10,74.1,61.9,54.0,54.5,46.3,37.8,89,59,35,30.26,30.00,23,-408,23,0.13
2013-5-11,68.4,59.0,52.9,53.8,48.7,43.0,88,69,46,30.10,29.89,13,-611,13,0.12
2013-5-12,63.1,50.7,42.1,43.5,30.0,19.2,82,48,24,30.21,29.94,17,-789,17,0.00
2013-5-13,63.0,46.9,36.1,23.0,19.3,13.1,52,35,16,30.35,30.09,10,-776,10,0.00
2013-5-14,71.1,53.5,37.0,36.1,27.0,17.4,51,37,20,30.40,30.08,18,-438,18,0.00
2013-5-15,87.8,68.9,53.2,46.0,39.6,30.9,61,37,16,30.19,29.94,20,-427,20,0.00
2013-5-16,78.1,65.4,58.5,43.5,38.8,31.8,46,38,23,30.19,30.01,16,-636,16,0.00
2013-5-17,79.5,64.8,56.3,57.0,47.5,37.0,90,56,33,30.25,30.07,15,-407,15,0.37
2013-5-18,59.2,58.2,56.7,58.3,56.5,52.3,98,94,81,30.27,30.16,17,-206,17,0.50
2013-5-19,62.6,59.8,57.4,62.1,59.3,56.8,98,98,98,30.23,30.12,11,-469,11,0.17
2013-5-20,79.0,63.6,56.8,63.3,59.1,51.1,98,87,40,30.26,30.04,9,-731,9,0.12
2013-5-21,83.3,67.3,58.1,66.0,57.5,48.7,98,75,36,30.19,29.94,12,-461,12,0.46
2013-5-22,73.6,62.0,56.5,65.3,56.4,49.3,98,83,53,30.19,29.95,15,-455,15,1.41
2013-5-23,81.7,62.9,55.9,63.3,51.3,37.8,98,72,25,30.10,29.81,13,-276,13,0.04
2013-5-24,61.2,51.7,43.7,48.6,36.3,23.9,93,59,27,30.38,29.97,13,-279,13,0.00
2013-5-25,74.8,54.6,41.7,31.8,25.9,18.1,57,36,13,30.43,30.17,13,-438,13,0.00
2013-5-26,78.1,58.3,46.0,37.4,32.4,25.2,60,40,20,30.41,30.14,9,-193,9,0.00
2013-5-27,77.7,62.1,50.7,49.8,43.9,36.3,68,53,31,30.40,30.15,17,-356,17,0.00
2013-5-28,77.9,64.7,55.6,59.0,51.8,47.5,84,64,45,30.32,30.19,19,-94,19,0.00
2013-5-29,82.6,67.3,56.1,59.0,52.6,44.4,91,63,31,30.34,30.16,17,-32,17,0.00
2013-5-30,81.7,66.7,56.8,60.3,53.0,47.3,91,64,33,30.40,30.18,16,-318,16,0.00
2013-5-31,79.7,66.6,57.9,58.8,52.6,45.0,84,62,33,30.34,30.13,17,-108,17,0.00